sensor_id;sensor_type;location;lat;lon;timestamp;P1;durP1;ratioP1;P2;durP2;ratioP2
40611;SDS011;26317;44.894;20.286;2022-08-16T00:01:35;16.92;;;13.35;;
40611;SDS011;26317;44.894;20.286;2022-08-16T00:04:04;15.65;;;14.05;;
40611;SDS011;26317;44.894;20.286;2022-08-16T00:06:33;14.77;;;12.88;;
40611;SDS011;26317;44.894;20.286;2022-08-16T00:09:05;13.13;;;11.90;;
40611;SDS011;26317;44.894;20.286;2022-08-16T00:11:35;14.32;;;12.65;;
40611;SDS011;26317;44.894;20.286;2022-08-16T00:14:05;13.82;;;12.43;;
40611;SDS011;26317;44.894;20.286;2022-08-16T00:16:36;14.52;;;13.13;;
40611;SDS011;26317;44.894;20.286;2022-08-16T00:19:05;13.80;;;12.60;;
40611;SDS011;26317;44.894;20.286;2022-08-16T00:21:34;16.23;;;12.50;;
40611;SDS011;26317;44.894;20.286;2022-08-16T00:24:06;13.35;;;11.93;;
40611;SDS011;26317;44.894;20.286;2022-08-16T00:26:35;16.25;;;13.38;;
40611;SDS011;26317;44.894;20.286;2022-08-16T00:29:04;17.02;;;13.20;;
40611;SDS011;26317;44.894;20.286;2022-08-16T00:31:33;15.43;;;12.02;;
40611;SDS011;26317;44.894;20.286;2022-08-16T00:34:03;14.82;;;12.23;;
40611;SDS011;26317;44.894;20.286;2022-08-16T00:36:32;15.82;;;12.20;;
40611;SDS011;26317;44.894;20.286;2022-08-16T00:39:01;13.07;;;11.73;;
40611;SDS011;26317;44.894;20.286;2022-08-16T00:41:33;13.98;;;12.35;;
40611;SDS011;26317;44.894;20.286;2022-08-16T00:44:03;12.70;;;11.32;;
40611;SDS011;26317;44.894;20.286;2022-08-16T00:46:36;13.90;;;12.60;;
40611;SDS011;26317;44.894;20.286;2022-08-16T00:49:09;14.95;;;12.45;;
40611;SDS011;26317;44.894;20.286;2022-08-16T00:51:41;13.32;;;12.02;;
40611;SDS011;26317;44.894;20.286;2022-08-16T00:54:13;16.08;;;12.15;;
40611;SDS011;26317;44.894;20.286;2022-08-16T00:56:43;13.82;;;11.70;;
40611;SDS011;26317;44.894;20.286;2022-08-16T00:59:15;14.00;;;12.65;;
40611;SDS011;26317;44.894;20.286;2022-08-16T01:01:46;12.88;;;11.10;;
40611;SDS011;26317;44.894;20.286;2022-08-16T01:04:15;13.52;;;12.13;;
40611;SDS011;26317;44.894;20.286;2022-08-16T01:06:48;13.20;;;11.75;;
40611;SDS011;26317;44.894;20.286;2022-08-16T01:09:20;13.00;;;11.38;;
40611;SDS011;26317;44.894;20.286;2022-08-16T01:11:50;15.90;;;12.40;;
40611;SDS011;26317;44.894;20.286;2022-08-16T01:14:22;15.60;;;11.80;;
40611;SDS011;26317;44.894;20.286;2022-08-16T01:16:54;14.23;;;11.82;;
40611;SDS011;26317;44.894;20.286;2022-08-16T01:19:27;13.50;;;12.07;;
40611;SDS011;26317;44.894;20.286;2022-08-16T01:22:01;15.75;;;12.65;;
40611;SDS011;26317;44.894;20.286;2022-08-16T01:24:40;13.90;;;12.48;;
40611;SDS011;26317;44.894;20.286;2022-08-16T01:27:13;13.23;;;12.07;;
40611;SDS011;26317;44.894;20.286;2022-08-16T01:29:47;17.30;;;12.48;;
40611;SDS011;26317;44.894;20.286;2022-08-16T01:32:20;14.18;;;11.25;;
40611;SDS011;26317;44.894;20.286;2022-08-16T01:34:49;17.88;;;12.10;;
40611;SDS011;26317;44.894;20.286;2022-08-16T01:37:19;15.90;;;12.98;;
40611;SDS011;26317;44.894;20.286;2022-08-16T01:39:51;15.23;;;12.57;;
40611;SDS011;26317;44.894;20.286;2022-08-16T01:42:20;14.18;;;12.88;;
40611;SDS011;26317;44.894;20.286;2022-08-16T01:44:49;14.40;;;12.00;;
40611;SDS011;26317;44.894;20.286;2022-08-16T01:47:18;14.68;;;13.07;;
40611;SDS011;26317;44.894;20.286;2022-08-16T01:49:47;14.02;;;12.68;;
40611;SDS011;26317;44.894;20.286;2022-08-16T01:52:16;15.35;;;12.18;;
40611;SDS011;26317;44.894;20.286;2022-08-16T01:55:03;13.45;;;12.13;;
40611;SDS011;26317;44.894;20.286;2022-08-16T01:57:33;15.65;;;11.45;;
40611;SDS011;26317;44.894;20.286;2022-08-16T02:00:04;12.10;;;10.90;;
40611;SDS011;26317;44.894;20.286;2022-08-16T02:06:08;14.02;;;11.85;;
40611;SDS011;26317;44.894;20.286;2022-08-16T02:08:37;14.32;;;11.15;;
40611;SDS011;26317;44.894;20.286;2022-08-16T02:11:09;12.32;;;10.55;;
40611;SDS011;26317;44.894;20.286;2022-08-16T02:13:38;15.93;;;10.90;;
40611;SDS011;26317;44.894;20.286;2022-08-16T02:16:11;13.73;;;10.40;;
40611;SDS011;26317;44.894;20.286;2022-08-16T02:18:41;12.45;;;10.65;;
40611;SDS011;26317;44.894;20.286;2022-08-16T02:21:10;12.35;;;10.32;;
40611;SDS011;26317;44.894;20.286;2022-08-16T02:23:40;12.20;;;9.65;;
40611;SDS011;26317;44.894;20.286;2022-08-16T02:26:12;11.50;;;9.98;;
40611;SDS011;26317;44.894;20.286;2022-08-16T02:28:42;10.20;;;9.20;;
40611;SDS011;26317;44.894;20.286;2022-08-16T02:31:13;15.50;;;9.57;;
40611;SDS011;26317;44.894;20.286;2022-08-16T02:33:43;12.27;;;10.45;;
40611;SDS011;26317;44.894;20.286;2022-08-16T02:36:21;13.50;;;8.20;;
40611;SDS011;26317;44.894;20.286;2022-08-16T02:38:50;10.35;;;8.07;;
40611;SDS011;26317;44.894;20.286;2022-08-16T02:41:22;12.10;;;8.93;;
40611;SDS011;26317;44.894;20.286;2022-08-16T02:43:51;10.73;;;9.02;;
40611;SDS011;26317;44.894;20.286;2022-08-16T02:46:21;9.23;;;8.38;;
40611;SDS011;26317;44.894;20.286;2022-08-16T02:48:50;11.80;;;8.85;;
40611;SDS011;26317;44.894;20.286;2022-08-16T02:51:19;10.20;;;8.45;;
40611;SDS011;26317;44.894;20.286;2022-08-16T02:53:48;8.98;;;8.18;;
40611;SDS011;26317;44.894;20.286;2022-08-16T02:56:16;11.40;;;8.40;;
40611;SDS011;26317;44.894;20.286;2022-08-16T02:58:49;11.20;;;9.05;;
40611;SDS011;26317;44.894;20.286;2022-08-16T03:01:20;9.65;;;7.97;;
40611;SDS011;26317;44.894;20.286;2022-08-16T03:03:51;12.00;;;8.13;;
40611;SDS011;26317;44.894;20.286;2022-08-16T03:06:24;10.68;;;8.70;;
40611;SDS011;26317;44.894;20.286;2022-08-16T03:08:59;9.00;;;8.10;;
40611;SDS011;26317;44.894;20.286;2022-08-16T03:11:32;9.60;;;8.57;;
40611;SDS011;26317;44.894;20.286;2022-08-16T03:14:04;9.85;;;8.88;;
40611;SDS011;26317;44.894;20.286;2022-08-16T03:16:34;11.50;;;8.80;;
40611;SDS011;26317;44.894;20.286;2022-08-16T03:19:03;9.85;;;8.85;;
40611;SDS011;26317;44.894;20.286;2022-08-16T03:21:33;11.52;;;8.13;;
40611;SDS011;26317;44.894;20.286;2022-08-16T03:24:03;10.05;;;9.05;;
40611;SDS011;26317;44.894;20.286;2022-08-16T03:26:32;9.45;;;7.63;;
40611;SDS011;26317;44.894;20.286;2022-08-16T03:29:04;13.60;;;8.00;;
40611;SDS011;26317;44.894;20.286;2022-08-16T03:31:33;7.88;;;7.07;;
40611;SDS011;26317;44.894;20.286;2022-08-16T03:34:02;11.05;;;7.65;;
40611;SDS011;26317;44.894;20.286;2022-08-16T03:36:31;10.30;;;8.25;;
40611;SDS011;26317;44.894;20.286;2022-08-16T03:39:04;9.25;;;7.90;;
40611;SDS011;26317;44.894;20.286;2022-08-16T03:41:34;10.10;;;8.00;;
40611;SDS011;26317;44.894;20.286;2022-08-16T03:44:08;12.38;;;7.25;;
40611;SDS011;26317;44.894;20.286;2022-08-16T03:46:38;7.38;;;6.78;;
40611;SDS011;26317;44.894;20.286;2022-08-16T03:49:08;9.48;;;7.85;;
40611;SDS011;26317;44.894;20.286;2022-08-16T03:51:37;10.93;;;8.60;;
40611;SDS011;26317;44.894;20.286;2022-08-16T03:54:08;12.30;;;8.93;;
40611;SDS011;26317;44.894;20.286;2022-08-16T03:56:37;8.73;;;7.82;;
40611;SDS011;26317;44.894;20.286;2022-08-16T03:59:09;11.20;;;8.02;;
40611;SDS011;26317;44.894;20.286;2022-08-16T04:01:45;8.73;;;7.93;;
40611;SDS011;26317;44.894;20.286;2022-08-16T04:04:14;9.00;;;7.38;;
40611;SDS011;26317;44.894;20.286;2022-08-16T04:06:44;10.35;;;7.90;;
40611;SDS011;26317;44.894;20.286;2022-08-16T04:09:13;8.25;;;7.53;;
40611;SDS011;26317;44.894;20.286;2022-08-16T04:11:42;9.23;;;7.97;;
40611;SDS011;26317;44.894;20.286;2022-08-16T04:14:13;8.93;;;8.02;;
40611;SDS011;26317;44.894;20.286;2022-08-16T04:16:42;8.30;;;7.50;;
40611;SDS011;26317;44.894;20.286;2022-08-16T04:19:27;7.90;;;7.20;;
40611;SDS011;26317;44.894;20.286;2022-08-16T04:21:59;8.63;;;7.72;;
40611;SDS011;26317;44.894;20.286;2022-08-16T04:24:36;9.77;;;7.82;;
40611;SDS011;26317;44.894;20.286;2022-08-16T04:27:05;9.93;;;8.23;;
40611;SDS011;26317;44.894;20.286;2022-08-16T04:29:39;8.25;;;7.43;;
40611;SDS011;26317;44.894;20.286;2022-08-16T04:32:08;13.38;;;7.97;;
40611;SDS011;26317;44.894;20.286;2022-08-16T04:34:37;8.70;;;7.78;;
40611;SDS011;26317;44.894;20.286;2022-08-16T04:37:07;10.48;;;8.10;;
40611;SDS011;26317;44.894;20.286;2022-08-16T04:39:41;9.75;;;8.13;;
40611;SDS011;26317;44.894;20.286;2022-08-16T04:42:10;10.55;;;7.93;;
40611;SDS011;26317;44.894;20.286;2022-08-16T04:44:42;10.95;;;8.52;;
40611;SDS011;26317;44.894;20.286;2022-08-16T04:47:11;7.85;;;7.05;;
40611;SDS011;26317;44.894;20.286;2022-08-16T04:49:40;13.35;;;7.82;;
40611;SDS011;26317;44.894;20.286;2022-08-16T04:52:09;12.00;;;7.82;;
40611;SDS011;26317;44.894;20.286;2022-08-16T04:54:39;11.52;;;7.80;;
40611;SDS011;26317;44.894;20.286;2022-08-16T04:57:07;9.15;;;8.23;;
40611;SDS011;26317;44.894;20.286;2022-08-16T04:59:37;9.32;;;6.78;;
40611;SDS011;26317;44.894;20.286;2022-08-16T05:02:08;10.20;;;7.18;;
40611;SDS011;26317;44.894;20.286;2022-08-16T05:04:38;9.52;;;7.68;;
40611;SDS011;26317;44.894;20.286;2022-08-16T05:07:07;12.15;;;7.20;;
40611;SDS011;26317;44.894;20.286;2022-08-16T05:09:59;7.75;;;7.05;;
40611;SDS011;26317;44.894;20.286;2022-08-16T05:12:28;12.60;;;7.22;;
40611;SDS011;26317;44.894;20.286;2022-08-16T05:14:58;7.55;;;6.95;;
40611;SDS011;26317;44.894;20.286;2022-08-16T05:17:31;8.90;;;8.10;;
40611;SDS011;26317;44.894;20.286;2022-08-16T05:20:06;11.60;;;7.63;;
40611;SDS011;26317;44.894;20.286;2022-08-16T05:22:39;9.68;;;7.88;;
40611;SDS011;26317;44.894;20.286;2022-08-16T05:25:12;10.25;;;7.82;;
40611;SDS011;26317;44.894;20.286;2022-08-16T05:27:46;10.57;;;7.93;;
40611;SDS011;26317;44.894;20.286;2022-08-16T05:30:18;16.15;;;8.30;;
40611;SDS011;26317;44.894;20.286;2022-08-16T05:32:50;10.05;;;8.27;;
40611;SDS011;26317;44.894;20.286;2022-08-16T05:35:20;11.77;;;7.50;;
40611;SDS011;26317;44.894;20.286;2022-08-16T05:38:07;17.17;;;7.70;;
40611;SDS011;26317;44.894;20.286;2022-08-16T05:40:36;9.45;;;6.90;;
40611;SDS011;26317;44.894;20.286;2022-08-16T05:43:05;13.20;;;7.32;;
40611;SDS011;26317;44.894;20.286;2022-08-16T05:45:34;11.85;;;7.10;;
40611;SDS011;26317;44.894;20.286;2022-08-16T05:48:06;10.18;;;6.60;;
40611;SDS011;26317;44.894;20.286;2022-08-16T05:51:04;7.18;;;6.38;;
40611;SDS011;26317;44.894;20.286;2022-08-16T05:53:34;9.38;;;6.75;;
40611;SDS011;26317;44.894;20.286;2022-08-16T05:56:07;11.13;;;6.53;;
40611;SDS011;26317;44.894;20.286;2022-08-16T05:58:39;7.65;;;6.95;;
40611;SDS011;26317;44.894;20.286;2022-08-16T06:01:11;7.47;;;5.93;;
40611;SDS011;26317;44.894;20.286;2022-08-16T06:03:46;9.35;;;6.53;;
40611;SDS011;26317;44.894;20.286;2022-08-16T06:06:22;10.35;;;7.25;;
40611;SDS011;26317;44.894;20.286;2022-08-16T06:08:51;12.07;;;7.13;;
40611;SDS011;26317;44.894;20.286;2022-08-16T06:11:20;14.88;;;7.40;;
40611;SDS011;26317;44.894;20.286;2022-08-16T06:13:53;7.82;;;6.82;;
40611;SDS011;26317;44.894;20.286;2022-08-16T06:16:38;11.23;;;7.47;;
40611;SDS011;26317;44.894;20.286;2022-08-16T06:19:10;7.47;;;6.65;;
40611;SDS011;26317;44.894;20.286;2022-08-16T06:21:48;10.48;;;7.43;;
40611;SDS011;26317;44.894;20.286;2022-08-16T06:24:18;10.30;;;7.95;;
40611;SDS011;26317;44.894;20.286;2022-08-16T06:26:47;8.13;;;6.95;;
40611;SDS011;26317;44.894;20.286;2022-08-16T06:29:16;8.95;;;7.25;;
40611;SDS011;26317;44.894;20.286;2022-08-16T06:31:45;9.05;;;7.38;;
40611;SDS011;26317;44.894;20.286;2022-08-16T06:34:17;9.00;;;6.45;;
40611;SDS011;26317;44.894;20.286;2022-08-16T06:36:46;7.47;;;6.72;;
40611;SDS011;26317;44.894;20.286;2022-08-16T06:39:19;11.90;;;6.68;;
40611;SDS011;26317;44.894;20.286;2022-08-16T06:41:48;7.38;;;6.10;;
40611;SDS011;26317;44.894;20.286;2022-08-16T06:44:40;8.20;;;6.78;;
40611;SDS011;26317;44.894;20.286;2022-08-16T06:47:35;9.95;;;6.90;;
40611;SDS011;26317;44.894;20.286;2022-08-16T06:50:07;7.15;;;6.45;;
40611;SDS011;26317;44.894;20.286;2022-08-16T06:52:42;10.15;;;6.63;;
40611;SDS011;26317;44.894;20.286;2022-08-16T06:55:12;8.45;;;6.63;;
40611;SDS011;26317;44.894;20.286;2022-08-16T06:57:49;8.32;;;6.55;;
40611;SDS011;26317;44.894;20.286;2022-08-16T07:02:58;8.77;;;6.78;;
40611;SDS011;26317;44.894;20.286;2022-08-16T07:05:31;15.05;;;7.03;;
40611;SDS011;26317;44.894;20.286;2022-08-16T07:08:12;7.70;;;5.75;;
40611;SDS011;26317;44.894;20.286;2022-08-16T07:10:41;9.23;;;5.55;;
40611;SDS011;26317;44.894;20.286;2022-08-16T07:13:12;6.60;;;4.93;;
40611;SDS011;26317;44.894;20.286;2022-08-16T07:15:41;10.00;;;5.30;;
40611;SDS011;26317;44.894;20.286;2022-08-16T07:18:11;8.82;;;5.47;;
40611;SDS011;26317;44.894;20.286;2022-08-16T07:20:44;5.88;;;5.05;;
40611;SDS011;26317;44.894;20.286;2022-08-16T07:23:15;6.78;;;5.15;;
40611;SDS011;26317;44.894;20.286;2022-08-16T07:25:52;10.93;;;5.55;;
40611;SDS011;26317;44.894;20.286;2022-08-16T07:28:23;8.07;;;5.80;;
40611;SDS011;26317;44.894;20.286;2022-08-16T07:30:53;9.18;;;4.63;;
40611;SDS011;26317;44.894;20.286;2022-08-16T07:33:38;8.48;;;4.88;;
40611;SDS011;26317;44.894;20.286;2022-08-16T07:36:12;7.70;;;5.22;;
40611;SDS011;26317;44.894;20.286;2022-08-16T07:38:44;7.88;;;4.10;;
40611;SDS011;26317;44.894;20.286;2022-08-16T07:41:14;5.40;;;3.58;;
40611;SDS011;26317;44.894;20.286;2022-08-16T07:43:48;5.13;;;4.45;;
40611;SDS011;26317;44.894;20.286;2022-08-16T07:46:18;9.40;;;3.73;;
40611;SDS011;26317;44.894;20.286;2022-08-16T07:48:48;5.60;;;4.15;;
40611;SDS011;26317;44.894;20.286;2022-08-16T07:51:20;10.70;;;5.25;;
40611;SDS011;26317;44.894;20.286;2022-08-16T07:53:49;7.43;;;3.95;;
40611;SDS011;26317;44.894;20.286;2022-08-16T07:56:19;5.43;;;4.47;;
40611;SDS011;26317;44.894;20.286;2022-08-16T07:58:48;6.85;;;4.07;;
40611;SDS011;26317;44.894;20.286;2022-08-16T08:01:17;5.82;;;4.47;;
40611;SDS011;26317;44.894;20.286;2022-08-16T08:03:51;5.97;;;4.65;;
40611;SDS011;26317;44.894;20.286;2022-08-16T08:06:27;7.75;;;4.35;;
40611;SDS011;26317;44.894;20.286;2022-08-16T08:09:03;6.35;;;4.25;;
40611;SDS011;26317;44.894;20.286;2022-08-16T08:11:33;7.35;;;4.35;;
40611;SDS011;26317;44.894;20.286;2022-08-16T08:14:05;11.27;;;4.60;;
40611;SDS011;26317;44.894;20.286;2022-08-16T08:16:39;6.85;;;4.38;;
40611;SDS011;26317;44.894;20.286;2022-08-16T08:19:08;6.30;;;3.85;;
40611;SDS011;26317;44.894;20.286;2022-08-16T08:21:42;5.05;;;4.55;;
40611;SDS011;26317;44.894;20.286;2022-08-16T08:24:12;4.57;;;3.67;;
40611;SDS011;26317;44.894;20.286;2022-08-16T08:26:45;7.22;;;4.50;;
40611;SDS011;26317;44.894;20.286;2022-08-16T08:29:15;6.35;;;4.75;;
40611;SDS011;26317;44.894;20.286;2022-08-16T08:31:44;7.53;;;4.95;;
40611;SDS011;26317;44.894;20.286;2022-08-16T08:34:13;5.85;;;4.25;;
40611;SDS011;26317;44.894;20.286;2022-08-16T08:36:45;6.70;;;4.30;;
40611;SDS011;26317;44.894;20.286;2022-08-16T08:39:26;8.27;;;4.90;;
40611;SDS011;26317;44.894;20.286;2022-08-16T08:41:55;6.25;;;4.13;;
40611;SDS011;26317;44.894;20.286;2022-08-16T08:44:24;4.93;;;3.80;;
40611;SDS011;26317;44.894;20.286;2022-08-16T08:46:53;5.95;;;4.53;;
40611;SDS011;26317;44.894;20.286;2022-08-16T08:49:25;12.52;;;6.28;;
40611;SDS011;26317;44.894;20.286;2022-08-16T08:51:57;7.22;;;3.83;;
40611;SDS011;26317;44.894;20.286;2022-08-16T08:54:26;6.55;;;3.45;;
40611;SDS011;26317;44.894;20.286;2022-08-16T08:56:56;6.50;;;3.67;;
40611;SDS011;26317;44.894;20.286;2022-08-16T08:59:35;6.05;;;3.33;;
40611;SDS011;26317;44.894;20.286;2022-08-16T09:02:05;5.95;;;3.85;;
40611;SDS011;26317;44.894;20.286;2022-08-16T09:04:40;4.95;;;3.80;;
40611;SDS011;26317;44.894;20.286;2022-08-16T09:07:12;9.60;;;3.75;;
40611;SDS011;26317;44.894;20.286;2022-08-16T09:09:41;4.38;;;3.55;;
40611;SDS011;26317;44.894;20.286;2022-08-16T09:12:12;3.60;;;3.08;;
40611;SDS011;26317;44.894;20.286;2022-08-16T09:15:02;7.15;;;2.92;;
40611;SDS011;26317;44.894;20.286;2022-08-16T09:20:03;6.18;;;3.80;;
40611;SDS011;26317;44.894;20.286;2022-08-16T09:22:36;8.50;;;5.43;;
40611;SDS011;26317;44.894;20.286;2022-08-16T09:25:05;8.13;;;3.67;;
40611;SDS011;26317;44.894;20.286;2022-08-16T09:27:38;8.50;;;3.60;;
40611;SDS011;26317;44.894;20.286;2022-08-16T09:30:09;7.82;;;3.63;;
40611;SDS011;26317;44.894;20.286;2022-08-16T09:32:39;5.53;;;4.00;;
40611;SDS011;26317;44.894;20.286;2022-08-16T09:35:09;5.07;;;3.53;;
40611;SDS011;26317;44.894;20.286;2022-08-16T09:37:40;4.55;;;3.17;;
40611;SDS011;26317;44.894;20.286;2022-08-16T09:40:10;6.47;;;3.72;;
40611;SDS011;26317;44.894;20.286;2022-08-16T09:42:39;6.55;;;3.95;;
40611;SDS011;26317;44.894;20.286;2022-08-16T09:45:10;6.63;;;3.60;;
40611;SDS011;26317;44.894;20.286;2022-08-16T09:47:39;5.88;;;3.13;;
40611;SDS011;26317;44.894;20.286;2022-08-16T09:50:09;6.05;;;3.90;;
40611;SDS011;26317;44.894;20.286;2022-08-16T09:52:41;7.07;;;3.47;;
40611;SDS011;26317;44.894;20.286;2022-08-16T09:55:10;5.97;;;3.28;;
40611;SDS011;26317;44.894;20.286;2022-08-16T09:57:40;7.00;;;3.83;;
40611;SDS011;26317;44.894;20.286;2022-08-16T10:00:09;7.45;;;3.25;;
40611;SDS011;26317;44.894;20.286;2022-08-16T10:02:40;6.63;;;3.72;;
40611;SDS011;26317;44.894;20.286;2022-08-16T10:05:09;5.85;;;3.10;;
40611;SDS011;26317;44.894;20.286;2022-08-16T10:07:38;8.88;;;3.53;;
40611;SDS011;26317;44.894;20.286;2022-08-16T10:10:11;7.93;;;3.30;;
40611;SDS011;26317;44.894;20.286;2022-08-16T10:12:40;6.15;;;3.50;;
40611;SDS011;26317;44.894;20.286;2022-08-16T10:15:21;6.65;;;3.70;;
40611;SDS011;26317;44.894;20.286;2022-08-16T10:17:52;6.55;;;3.53;;
40611;SDS011;26317;44.894;20.286;2022-08-16T10:20:22;5.93;;;3.70;;
40611;SDS011;26317;44.894;20.286;2022-08-16T10:22:53;9.02;;;4.00;;
40611;SDS011;26317;44.894;20.286;2022-08-16T10:25:25;5.22;;;3.38;;
40611;SDS011;26317;44.894;20.286;2022-08-16T10:27:55;8.15;;;3.58;;
40611;SDS011;26317;44.894;20.286;2022-08-16T10:30:24;7.35;;;3.33;;
40611;SDS011;26317;44.894;20.286;2022-08-16T10:32:53;5.78;;;3.15;;
40611;SDS011;26317;44.894;20.286;2022-08-16T10:35:23;8.15;;;3.95;;
40611;SDS011;26317;44.894;20.286;2022-08-16T10:37:53;8.23;;;3.38;;
40611;SDS011;26317;44.894;20.286;2022-08-16T10:40:25;8.27;;;3.63;;
40611;SDS011;26317;44.894;20.286;2022-08-16T10:42:55;4.43;;;3.50;;
40611;SDS011;26317;44.894;20.286;2022-08-16T10:45:25;11.30;;;6.57;;
40611;SDS011;26317;44.894;20.286;2022-08-16T10:47:54;5.97;;;3.97;;
40611;SDS011;26317;44.894;20.286;2022-08-16T10:50:24;6.00;;;3.93;;
40611;SDS011;26317;44.894;20.286;2022-08-16T10:52:53;7.25;;;3.50;;
40611;SDS011;26317;44.894;20.286;2022-08-16T10:55:25;10.50;;;6.95;;
40611;SDS011;26317;44.894;20.286;2022-08-16T10:57:54;5.22;;;3.38;;
40611;SDS011;26317;44.894;20.286;2022-08-16T11:00:26;7.07;;;6.40;;
40611;SDS011;26317;44.894;20.286;2022-08-16T11:02:57;8.27;;;3.88;;
40611;SDS011;26317;44.894;20.286;2022-08-16T11:05:27;4.07;;;3.50;;
40611;SDS011;26317;44.894;20.286;2022-08-16T11:07:56;15.68;;;8.60;;
40611;SDS011;26317;44.894;20.286;2022-08-16T11:10:30;16.10;;;13.40;;
40611;SDS011;26317;44.894;20.286;2022-08-16T11:13:01;4.95;;;4.50;;
40611;SDS011;26317;44.894;20.286;2022-08-16T11:15:31;6.35;;;3.03;;
40611;SDS011;26317;44.894;20.286;2022-08-16T11:18:00;7.03;;;3.03;;
40611;SDS011;26317;44.894;20.286;2022-08-16T11:20:29;6.63;;;3.70;;
40611;SDS011;26317;44.894;20.286;2022-08-16T11:22:58;9.88;;;3.42;;
40611;SDS011;26317;44.894;20.286;2022-08-16T11:25:30;5.38;;;4.25;;
40611;SDS011;26317;44.894;20.286;2022-08-16T11:28:00;11.02;;;6.88;;
40611;SDS011;26317;44.894;20.286;2022-08-16T11:30:30;10.30;;;4.85;;
40611;SDS011;26317;44.894;20.286;2022-08-16T11:33:00;5.38;;;4.13;;
40611;SDS011;26317;44.894;20.286;2022-08-16T11:35:30;3.80;;;3.30;;
40611;SDS011;26317;44.894;20.286;2022-08-16T11:38:00;9.18;;;7.13;;
40611;SDS011;26317;44.894;20.286;2022-08-16T11:40:36;5.93;;;3.58;;
40611;SDS011;26317;44.894;20.286;2022-08-16T11:43:11;7.23;;;3.80;;
40611;SDS011;26317;44.894;20.286;2022-08-16T11:45:41;10.47;;;3.23;;
40611;SDS011;26317;44.894;20.286;2022-08-16T11:48:11;7.38;;;3.58;;
40611;SDS011;26317;44.894;20.286;2022-08-16T11:50:42;7.22;;;3.72;;
40611;SDS011;26317;44.894;20.286;2022-08-16T11:53:11;9.45;;;3.25;;
40611;SDS011;26317;44.894;20.286;2022-08-16T11:55:44;4.93;;;2.95;;
40611;SDS011;26317;44.894;20.286;2022-08-16T11:58:12;4.50;;;3.33;;
40611;SDS011;26317;44.894;20.286;2022-08-16T12:00:43;3.40;;;2.93;;
40611;SDS011;26317;44.894;20.286;2022-08-16T12:03:13;12.13;;;4.28;;
40611;SDS011;26317;44.894;20.286;2022-08-16T12:05:42;6.82;;;3.40;;
40611;SDS011;26317;44.894;20.286;2022-08-16T12:10:45;6.82;;;3.20;;
40611;SDS011;26317;44.894;20.286;2022-08-16T12:13:17;5.65;;;3.28;;
40611;SDS011;26317;44.894;20.286;2022-08-16T12:15:45;5.65;;;2.65;;
40611;SDS011;26317;44.894;20.286;2022-08-16T12:18:14;3.88;;;3.40;;
40611;SDS011;26317;44.894;20.286;2022-08-16T12:20:43;3.90;;;2.85;;
40611;SDS011;26317;44.894;20.286;2022-08-16T12:23:12;4.80;;;2.97;;
40611;SDS011;26317;44.894;20.286;2022-08-16T12:25:41;8.32;;;4.10;;
40611;SDS011;26317;44.894;20.286;2022-08-16T12:28:14;6.03;;;3.42;;
40611;SDS011;26317;44.894;20.286;2022-08-16T12:30:44;3.67;;;2.50;;
40611;SDS011;26317;44.894;20.286;2022-08-16T12:33:14;6.32;;;2.97;;
40611;SDS011;26317;44.894;20.286;2022-08-16T12:35:45;3.88;;;2.78;;
40611;SDS011;26317;44.894;20.286;2022-08-16T12:38:15;4.65;;;3.00;;
40611;SDS011;26317;44.894;20.286;2022-08-16T12:40:48;6.38;;;3.10;;
40611;SDS011;26317;44.894;20.286;2022-08-16T12:43:18;5.15;;;2.75;;
40611;SDS011;26317;44.894;20.286;2022-08-16T12:45:49;10.68;;;3.08;;
40611;SDS011;26317;44.894;20.286;2022-08-16T12:48:20;8.25;;;2.90;;
40611;SDS011;26317;44.894;20.286;2022-08-16T12:51:04;4.13;;;2.85;;
40611;SDS011;26317;44.894;20.286;2022-08-16T12:53:35;6.35;;;2.53;;
40611;SDS011;26317;44.894;20.286;2022-08-16T12:56:07;4.32;;;2.90;;
40611;SDS011;26317;44.894;20.286;2022-08-16T12:58:38;3.42;;;2.50;;
40611;SDS011;26317;44.894;20.286;2022-08-16T13:01:08;5.38;;;2.50;;
40611;SDS011;26317;44.894;20.286;2022-08-16T13:03:37;5.90;;;3.25;;
40611;SDS011;26317;44.894;20.286;2022-08-16T13:06:09;6.63;;;2.80;;
40611;SDS011;26317;44.894;20.286;2022-08-16T13:08:39;3.53;;;2.45;;
40611;SDS011;26317;44.894;20.286;2022-08-16T13:11:11;4.40;;;2.53;;
40611;SDS011;26317;44.894;20.286;2022-08-16T13:13:41;4.85;;;2.92;;
40611;SDS011;26317;44.894;20.286;2022-08-16T13:16:10;4.38;;;3.08;;
40611;SDS011;26317;44.894;20.286;2022-08-16T13:18:38;3.65;;;2.65;;
40611;SDS011;26317;44.894;20.286;2022-08-16T13:21:07;5.53;;;3.00;;
40611;SDS011;26317;44.894;20.286;2022-08-16T13:23:37;4.80;;;2.65;;
40611;SDS011;26317;44.894;20.286;2022-08-16T13:26:06;8.13;;;3.17;;
40611;SDS011;26317;44.894;20.286;2022-08-16T13:31:08;4.03;;;2.60;;
40611;SDS011;26317;44.894;20.286;2022-08-16T13:33:37;7.13;;;2.72;;
40611;SDS011;26317;44.894;20.286;2022-08-16T13:36:08;5.88;;;2.42;;
40611;SDS011;26317;44.894;20.286;2022-08-16T13:38:38;5.15;;;3.22;;
40611;SDS011;26317;44.894;20.286;2022-08-16T13:41:08;4.47;;;2.47;;
40611;SDS011;26317;44.894;20.286;2022-08-16T13:43:41;5.72;;;2.33;;
40611;SDS011;26317;44.894;20.286;2022-08-16T13:46:10;7.55;;;2.90;;
40611;SDS011;26317;44.894;20.286;2022-08-16T13:48:39;6.03;;;2.60;;
40611;SDS011;26317;44.894;20.286;2022-08-16T13:51:08;3.42;;;2.67;;
40611;SDS011;26317;44.894;20.286;2022-08-16T13:53:37;7.28;;;4.15;;
40611;SDS011;26317;44.894;20.286;2022-08-16T13:56:06;3.90;;;3.40;;
40611;SDS011;26317;44.894;20.286;2022-08-16T13:58:34;4.22;;;2.78;;
40611;SDS011;26317;44.894;20.286;2022-08-16T14:01:06;9.00;;;3.28;;
40611;SDS011;26317;44.894;20.286;2022-08-16T14:03:36;2.58;;;2.35;;
40611;SDS011;26317;44.894;20.286;2022-08-16T14:06:06;4.18;;;2.75;;
40611;SDS011;26317;44.894;20.286;2022-08-16T14:08:36;4.38;;;2.55;;
40611;SDS011;26317;44.894;20.286;2022-08-16T14:11:05;3.95;;;3.03;;
40611;SDS011;26317;44.894;20.286;2022-08-16T14:13:34;6.85;;;2.78;;
40611;SDS011;26317;44.894;20.286;2022-08-16T14:16:06;4.72;;;2.60;;
40611;SDS011;26317;44.894;20.286;2022-08-16T14:18:36;8.02;;;3.55;;
40611;SDS011;26317;44.894;20.286;2022-08-16T14:21:05;5.65;;;3.10;;
40611;SDS011;26317;44.894;20.286;2022-08-16T14:23:34;5.40;;;3.17;;
40611;SDS011;26317;44.894;20.286;2022-08-16T14:26:03;7.70;;;3.55;;
40611;SDS011;26317;44.894;20.286;2022-08-16T14:28:32;6.40;;;3.13;;
40611;SDS011;26317;44.894;20.286;2022-08-16T14:31:01;6.05;;;3.38;;
40611;SDS011;26317;44.894;20.286;2022-08-16T14:33:33;6.03;;;3.10;;
40611;SDS011;26317;44.894;20.286;2022-08-16T14:36:02;10.30;;;2.72;;
40611;SDS011;26317;44.894;20.286;2022-08-16T14:38:31;4.27;;;2.60;;
40611;SDS011;26317;44.894;20.286;2022-08-16T14:41:00;7.15;;;3.92;;
40611;SDS011;26317;44.894;20.286;2022-08-16T14:43:29;6.20;;;2.90;;
40611;SDS011;26317;44.894;20.286;2022-08-16T14:45:58;5.38;;;3.03;;
40611;SDS011;26317;44.894;20.286;2022-08-16T14:48:29;10.65;;;5.28;;
40611;SDS011;26317;44.894;20.286;2022-08-16T14:51:00;26.70;;;22.92;;
40611;SDS011;26317;44.894;20.286;2022-08-16T14:53:29;8.88;;;3.40;;
40611;SDS011;26317;44.894;20.286;2022-08-16T14:55:59;8.93;;;5.85;;
40611;SDS011;26317;44.894;20.286;2022-08-16T14:58:28;3.63;;;3.03;;
40611;SDS011;26317;44.894;20.286;2022-08-16T15:00:57;4.32;;;3.13;;
40611;SDS011;26317;44.894;20.286;2022-08-16T15:03:26;6.95;;;2.80;;
40611;SDS011;26317;44.894;20.286;2022-08-16T15:05:55;9.45;;;8.15;;